sensor_id;sensor_type;location;lat;lon;timestamp;P1;durP1;ratioP1;P2;durP2;ratioP2
19842;SDS011;10082;51.038;6.992;2022-10-31T00:00:09;9.55;;;7.95;;
19842;SDS011;10082;51.038;6.992;2022-10-31T00:02:36;11.88;;;8.75;;
19842;SDS011;10082;51.038;6.992;2022-10-31T00:05:05;9.30;;;8.32;;
19842;SDS011;10082;51.038;6.992;2022-10-31T00:07:33;11.02;;;9.13;;
19842;SDS011;10082;51.038;6.992;2022-10-31T00:10:00;9.80;;;8.75;;
19842;SDS011;10082;51.038;6.992;2022-10-31T00:12:27;10.55;;;8.68;;
19842;SDS011;10082;51.038;6.992;2022-10-31T00:14:54;11.52;;;8.88;;
19842;SDS011;10082;51.038;6.992;2022-10-31T00:17:21;9.98;;;8.20;;
19842;SDS011;10082;51.038;6.992;2022-10-31T00:19:48;11.15;;;8.48;;
19842;SDS011;10082;51.038;6.992;2022-10-31T00:22:16;12.80;;;8.80;;
19842;SDS011;10082;51.038;6.992;2022-10-31T00:24:43;10.00;;;8.52;;
19842;SDS011;10082;51.038;6.992;2022-10-31T00:27:10;10.65;;;7.97;;
19842;SDS011;10082;51.038;6.992;2022-10-31T00:29:38;8.93;;;8.02;;
19842;SDS011;10082;51.038;6.992;2022-10-31T00:32:05;10.15;;;8.15;;
19842;SDS011;10082;51.038;6.992;2022-10-31T00:34:32;10.85;;;8.25;;
19842;SDS011;10082;51.038;6.992;2022-10-31T00:36:59;12.05;;;8.27;;
19842;SDS011;10082;51.038;6.992;2022-10-31T00:39:27;10.63;;;8.48;;
19842;SDS011;10082;51.038;6.992;2022-10-31T00:41:54;10.27;;;8.45;;
19842;SDS011;10082;51.038;6.992;2022-10-31T00:44:21;9.80;;;7.88;;
19842;SDS011;10082;51.038;6.992;2022-10-31T00:46:48;8.77;;;7.45;;
19842;SDS011;10082;51.038;6.992;2022-10-31T00:49:20;10.15;;;8.38;;
19842;SDS011;10082;51.038;6.992;2022-10-31T00:51:48;9.35;;;7.82;;
19842;SDS011;10082;51.038;6.992;2022-10-31T00:54:15;9.10;;;7.38;;
19842;SDS011;10082;51.038;6.992;2022-10-31T00:56:44;8.45;;;7.43;;
19842;SDS011;10082;51.038;6.992;2022-10-31T00:59:11;10.13;;;7.70;;
19842;SDS011;10082;51.038;6.992;2022-10-31T01:01:40;9.80;;;7.95;;
19842;SDS011;10082;51.038;6.992;2022-10-31T01:04:07;12.18;;;8.05;;
19842;SDS011;10082;51.038;6.992;2022-10-31T01:06:34;8.95;;;8.05;;
19842;SDS011;10082;51.038;6.992;2022-10-31T01:09:01;9.15;;;8.20;;
19842;SDS011;10082;51.038;6.992;2022-10-31T01:11:28;12.20;;;9.07;;
19842;SDS011;10082;51.038;6.992;2022-10-31T01:13:57;9.25;;;7.97;;
19842;SDS011;10082;51.038;6.992;2022-10-31T01:16:24;9.88;;;7.80;;
19842;SDS011;10082;51.038;6.992;2022-10-31T01:18:56;9.73;;;8.27;;
19842;SDS011;10082;51.038;6.992;2022-10-31T01:21:26;9.82;;;7.90;;
19842;SDS011;10082;51.038;6.992;2022-10-31T01:23:57;12.23;;;8.77;;
19842;SDS011;10082;51.038;6.992;2022-10-31T01:26:27;13.40;;;8.30;;
19842;SDS011;10082;51.038;6.992;2022-10-31T01:28:58;13.80;;;8.45;;
19842;SDS011;10082;51.038;6.992;2022-10-31T01:31:28;11.55;;;8.60;;
19842;SDS011;10082;51.038;6.992;2022-10-31T01:33:57;10.93;;;7.93;;
19842;SDS011;10082;51.038;6.992;2022-10-31T01:36:25;12.10;;;8.13;;
19842;SDS011;10082;51.038;6.992;2022-10-31T01:38:55;10.52;;;7.85;;
19842;SDS011;10082;51.038;6.992;2022-10-31T01:41:25;9.48;;;7.90;;
19842;SDS011;10082;51.038;6.992;2022-10-31T01:43:54;11.70;;;7.50;;
19842;SDS011;10082;51.038;6.992;2022-10-31T01:46:25;11.07;;;8.02;;
19842;SDS011;10082;51.038;6.992;2022-10-31T01:48:57;12.13;;;7.68;;
19842;SDS011;10082;51.038;6.992;2022-10-31T01:51:27;11.50;;;7.55;;
19842;SDS011;10082;51.038;6.992;2022-10-31T01:53:59;9.70;;;7.45;;
19842;SDS011;10082;51.038;6.992;2022-10-31T01:56:30;12.40;;;8.25;;
19842;SDS011;10082;51.038;6.992;2022-10-31T01:59:01;10.35;;;7.38;;
19842;SDS011;10082;51.038;6.992;2022-10-31T02:01:31;10.27;;;7.68;;
19842;SDS011;10082;51.038;6.992;2022-10-31T02:03:58;9.88;;;7.35;;
19842;SDS011;10082;51.038;6.992;2022-10-31T02:06:27;7.95;;;7.05;;
19842;SDS011;10082;51.038;6.992;2022-10-31T02:09:03;10.40;;;7.45;;
19842;SDS011;10082;51.038;6.992;2022-10-31T02:11:32;10.85;;;7.85;;
19842;SDS011;10082;51.038;6.992;2022-10-31T02:14:02;10.30;;;8.07;;
19842;SDS011;10082;51.038;6.992;2022-10-31T02:16:32;10.35;;;7.72;;
19842;SDS011;10082;51.038;6.992;2022-10-31T02:18:59;10.88;;;7.85;;
19842;SDS011;10082;51.038;6.992;2022-10-31T02:21:29;9.15;;;8.10;;
19842;SDS011;10082;51.038;6.992;2022-10-31T02:24:11;10.02;;;7.15;;
19842;SDS011;10082;51.038;6.992;2022-10-31T02:30:05;10.25;;;7.28;;
19842;SDS011;10082;51.038;6.992;2022-10-31T02:32:47;10.35;;;7.68;;
19842;SDS011;10082;51.038;6.992;2022-10-31T02:35:25;10.02;;;7.57;;
19842;SDS011;10082;51.038;6.992;2022-10-31T02:38:05;9.10;;;7.72;;
19842;SDS011;10082;51.038;6.992;2022-10-31T02:40:42;10.52;;;7.90;;
19842;SDS011;10082;51.038;6.992;2022-10-31T02:43:40;10.95;;;8.10;;
19842;SDS011;10082;51.038;6.992;2022-10-31T02:46:22;10.43;;;8.23;;
19842;SDS011;10082;51.038;6.992;2022-10-31T02:48:55;12.75;;;8.32;;
19842;SDS011;10082;51.038;6.992;2022-10-31T02:51:27;12.70;;;7.82;;
19842;SDS011;10082;51.038;6.992;2022-10-31T02:53:55;10.23;;;7.90;;
19842;SDS011;10082;51.038;6.992;2022-10-31T02:56:22;10.65;;;7.90;;
19842;SDS011;10082;51.038;6.992;2022-10-31T02:58:49;10.57;;;8.38;;
19842;SDS011;10082;51.038;6.992;2022-10-31T03:01:23;10.55;;;7.88;;
19842;SDS011;10082;51.038;6.992;2022-10-31T03:04:15;9.90;;;8.15;;
19842;SDS011;10082;51.038;6.992;2022-10-31T03:06:52;9.40;;;8.45;;
19842;SDS011;10082;51.038;6.992;2022-10-31T03:09:26;8.50;;;7.68;;
19842;SDS011;10082;51.038;6.992;2022-10-31T03:12:01;11.15;;;8.75;;
19842;SDS011;10082;51.038;6.992;2022-10-31T03:14:36;10.70;;;8.75;;
19842;SDS011;10082;51.038;6.992;2022-10-31T03:17:11;9.23;;;7.93;;
19842;SDS011;10082;51.038;6.992;2022-10-31T03:19:45;8.82;;;8.00;;
19842;SDS011;10082;51.038;6.992;2022-10-31T03:22:17;13.15;;;7.78;;
19842;SDS011;10082;51.038;6.992;2022-10-31T03:24:48;9.05;;;7.85;;
19842;SDS011;10082;51.038;6.992;2022-10-31T03:27:21;9.40;;;8.00;;
19842;SDS011;10082;51.038;6.992;2022-10-31T03:29:52;8.63;;;7.72;;
19842;SDS011;10082;51.038;6.992;2022-10-31T03:32:23;10.05;;;8.07;;
19842;SDS011;10082;51.038;6.992;2022-10-31T03:34:56;8.35;;;7.55;;
19842;SDS011;10082;51.038;6.992;2022-10-31T03:37:27;10.38;;;8.02;;
19842;SDS011;10082;51.038;6.992;2022-10-31T03:39:56;11.18;;;9.02;;
19842;SDS011;10082;51.038;6.992;2022-10-31T03:42:27;10.05;;;8.65;;
19842;SDS011;10082;51.038;6.992;2022-10-31T03:44:57;12.63;;;9.48;;
19842;SDS011;10082;51.038;6.992;2022-10-31T03:47:28;10.23;;;8.50;;
19842;SDS011;10082;51.038;6.992;2022-10-31T03:49:57;9.95;;;8.73;;
19842;SDS011;10082;51.038;6.992;2022-10-31T03:52:25;10.63;;;8.13;;
19842;SDS011;10082;51.038;6.992;2022-10-31T03:54:56;11.27;;;8.57;;
19842;SDS011;10082;51.038;6.992;2022-10-31T03:57:29;11.90;;;8.45;;
19842;SDS011;10082;51.038;6.992;2022-10-31T04:00:04;12.30;;;8.82;;
19842;SDS011;10082;51.038;6.992;2022-10-31T04:02:43;11.27;;;8.82;;
19842;SDS011;10082;51.038;6.992;2022-10-31T04:05:17;10.60;;;8.10;;
19842;SDS011;10082;51.038;6.992;2022-10-31T04:07:46;11.55;;;7.93;;
19842;SDS011;10082;51.038;6.992;2022-10-31T04:10:17;9.10;;;7.72;;
19842;SDS011;10082;51.038;6.992;2022-10-31T04:12:48;8.82;;;7.72;;
19842;SDS011;10082;51.038;6.992;2022-10-31T04:15:25;12.18;;;8.68;;
19842;SDS011;10082;51.038;6.992;2022-10-31T04:17:55;11.40;;;8.50;;
19842;SDS011;10082;51.038;6.992;2022-10-31T04:20:31;11.10;;;7.75;;
19842;SDS011;10082;51.038;6.992;2022-10-31T04:22:59;14.63;;;8.57;;
19842;SDS011;10082;51.038;6.992;2022-10-31T04:25:26;12.48;;;8.23;;
19842;SDS011;10082;51.038;6.992;2022-10-31T04:27:54;11.35;;;8.57;;
19842;SDS011;10082;51.038;6.992;2022-10-31T04:30:22;8.88;;;7.90;;
19842;SDS011;10082;51.038;6.992;2022-10-31T04:32:49;12.02;;;8.27;;
19842;SDS011;10082;51.038;6.992;2022-10-31T04:35:17;9.20;;;7.95;;
19842;SDS011;10082;51.038;6.992;2022-10-31T04:37:46;9.57;;;7.95;;
19842;SDS011;10082;51.038;6.992;2022-10-31T04:40:13;9.82;;;8.00;;
19842;SDS011;10082;51.038;6.992;2022-10-31T04:42:59;12.85;;;8.73;;
19842;SDS011;10082;51.038;6.992;2022-10-31T04:45:27;10.88;;;8.80;;
19842;SDS011;10082;51.038;6.992;2022-10-31T04:47:54;9.57;;;8.00;;
19842;SDS011;10082;51.038;6.992;2022-10-31T04:50:22;12.93;;;9.02;;
19842;SDS011;10082;51.038;6.992;2022-10-31T04:52:51;12.38;;;8.57;;
19842;SDS011;10082;51.038;6.992;2022-10-31T04:55:24;9.32;;;8.18;;
19842;SDS011;10082;51.038;6.992;2022-10-31T04:58:20;10.60;;;8.60;;
19842;SDS011;10082;51.038;6.992;2022-10-31T05:00:51;11.45;;;9.10;;
19842;SDS011;10082;51.038;6.992;2022-10-31T05:03:22;13.35;;;9.65;;
19842;SDS011;10082;51.038;6.992;2022-10-31T05:05:49;10.45;;;9.15;;
19842;SDS011;10082;51.038;6.992;2022-10-31T05:08:18;12.15;;;8.60;;
19842;SDS011;10082;51.038;6.992;2022-10-31T05:10:48;11.40;;;9.48;;
19842;SDS011;10082;51.038;6.992;2022-10-31T05:13:14;9.77;;;8.45;;
19842;SDS011;10082;51.038;6.992;2022-10-31T05:16:10;9.27;;;8.40;;
19842;SDS011;10082;51.038;6.992;2022-10-31T05:18:56;12.68;;;8.32;;
19842;SDS011;10082;51.038;6.992;2022-10-31T05:21:52;11.98;;;8.85;;
19842;SDS011;10082;51.038;6.992;2022-10-31T05:24:21;11.60;;;8.77;;
19842;SDS011;10082;51.038;6.992;2022-10-31T05:26:49;10.45;;;8.82;;
19842;SDS011;10082;51.038;6.992;2022-10-31T05:29:16;11.70;;;9.38;;
19842;SDS011;10082;51.038;6.992;2022-10-31T05:31:43;10.32;;;8.50;;
19842;SDS011;10082;51.038;6.992;2022-10-31T05:34:23;10.32;;;8.40;;
19842;SDS011;10082;51.038;6.992;2022-10-31T05:37:11;9.25;;;8.07;;
19842;SDS011;10082;51.038;6.992;2022-10-31T05:39:40;10.18;;;8.88;;
19842;SDS011;10082;51.038;6.992;2022-10-31T05:42:12;11.70;;;9.07;;
19842;SDS011;10082;51.038;6.992;2022-10-31T05:44:40;16.08;;;9.88;;
19842;SDS011;10082;51.038;6.992;2022-10-31T05:47:16;11.57;;;10.23;;
19842;SDS011;10082;51.038;6.992;2022-10-31T05:50:15;12.35;;;9.23;;
19842;SDS011;10082;51.038;6.992;2022-10-31T05:56:21;10.35;;;9.25;;
19842;SDS011;10082;51.038;6.992;2022-10-31T05:58:48;10.50;;;9.27;;
19842;SDS011;10082;51.038;6.992;2022-10-31T06:01:15;14.65;;;10.35;;
19842;SDS011;10082;51.038;6.992;2022-10-31T06:03:44;14.25;;;9.23;;
19842;SDS011;10082;51.038;6.992;2022-10-31T06:06:15;10.77;;;9.63;;
19842;SDS011;10082;51.038;6.992;2022-10-31T06:08:42;11.80;;;9.90;;
19842;SDS011;10082;51.038;6.992;2022-10-31T06:11:13;11.75;;;9.65;;
19842;SDS011;10082;51.038;6.992;2022-10-31T06:14:00;10.88;;;9.18;;
19842;SDS011;10082;51.038;6.992;2022-10-31T06:16:48;14.20;;;10.23;;
19842;SDS011;10082;51.038;6.992;2022-10-31T06:19:36;15.20;;;10.50;;
19842;SDS011;10082;51.038;6.992;2022-10-31T06:22:03;12.95;;;9.68;;
19842;SDS011;10082;51.038;6.992;2022-10-31T06:24:31;12.27;;;10.45;;
19842;SDS011;10082;51.038;6.992;2022-10-31T06:27:19;11.68;;;10.30;;
19842;SDS011;10082;51.038;6.992;2022-10-31T06:29:47;13.80;;;11.63;;
19842;SDS011;10082;51.038;6.992;2022-10-31T06:32:27;12.57;;;10.70;;
19842;SDS011;10082;51.038;6.992;2022-10-31T06:34:54;12.10;;;10.77;;
19842;SDS011;10082;51.038;6.992;2022-10-31T06:37:22;14.13;;;10.63;;
19842;SDS011;10082;51.038;6.992;2022-10-31T06:39:50;12.35;;;10.65;;
19842;SDS011;10082;51.038;6.992;2022-10-31T06:42:17;13.65;;;10.70;;
19842;SDS011;10082;51.038;6.992;2022-10-31T06:44:45;13.18;;;11.43;;
19842;SDS011;10082;51.038;6.992;2022-10-31T06:47:31;11.35;;;10.07;;
19842;SDS011;10082;51.038;6.992;2022-10-31T06:50:07;11.55;;;10.35;;
19842;SDS011;10082;51.038;6.992;2022-10-31T06:52:35;12.77;;;10.73;;
19842;SDS011;10082;51.038;6.992;2022-10-31T06:55:03;14.75;;;10.93;;
19842;SDS011;10082;51.038;6.992;2022-10-31T06:57:32;13.02;;;11.45;;
19842;SDS011;10082;51.038;6.992;2022-10-31T06:59:59;11.82;;;9.75;;
19842;SDS011;10082;51.038;6.992;2022-10-31T07:02:39;12.15;;;10.40;;
19842;SDS011;10082;51.038;6.992;2022-10-31T07:05:06;13.27;;;10.55;;
19842;SDS011;10082;51.038;6.992;2022-10-31T07:07:33;11.63;;;10.40;;
19842;SDS011;10082;51.038;6.992;2022-10-31T07:10:01;12.18;;;9.90;;
19842;SDS011;10082;51.038;6.992;2022-10-31T07:12:45;11.68;;;9.77;;
19842;SDS011;10082;51.038;6.992;2022-10-31T07:15:12;13.30;;;10.18;;
19842;SDS011;10082;51.038;6.992;2022-10-31T07:17:41;13.27;;;10.27;;
19842;SDS011;10082;51.038;6.992;2022-10-31T07:20:08;12.55;;;10.15;;
19842;SDS011;10082;51.038;6.992;2022-10-31T07:22:36;12.82;;;9.48;;
19842;SDS011;10082;51.038;6.992;2022-10-31T07:25:07;11.73;;;9.10;;
19842;SDS011;10082;51.038;6.992;2022-10-31T07:28:02;10.95;;;9.20;;
19842;SDS011;10082;51.038;6.992;2022-10-31T07:30:30;10.75;;;9.27;;
19842;SDS011;10082;51.038;6.992;2022-10-31T07:32:59;11.25;;;9.40;;
19842;SDS011;10082;51.038;6.992;2022-10-31T07:35:46;11.82;;;9.05;;
19842;SDS011;10082;51.038;6.992;2022-10-31T07:38:15;11.25;;;9.07;;
19842;SDS011;10082;51.038;6.992;2022-10-31T07:40:43;14.65;;;9.52;;
19842;SDS011;10082;51.038;6.992;2022-10-31T07:43:10;10.45;;;9.20;;
19842;SDS011;10082;51.038;6.992;2022-10-31T07:45:55;11.88;;;9.82;;
19842;SDS011;10082;51.038;6.992;2022-10-31T07:48:47;13.10;;;10.63;;
19842;SDS011;10082;51.038;6.992;2022-10-31T07:51:33;11.15;;;9.43;;
19842;SDS011;10082;51.038;6.992;2022-10-31T07:54:09;12.88;;;8.70;;
19842;SDS011;10082;51.038;6.992;2022-10-31T07:56:36;10.82;;;9.13;;
19842;SDS011;10082;51.038;6.992;2022-10-31T07:59:05;10.55;;;9.45;;
19842;SDS011;10082;51.038;6.992;2022-10-31T08:01:33;10.65;;;9.20;;
19842;SDS011;10082;51.038;6.992;2022-10-31T08:04:24;10.35;;;8.68;;
19842;SDS011;10082;51.038;6.992;2022-10-31T08:07:10;14.13;;;9.30;;
19842;SDS011;10082;51.038;6.992;2022-10-31T08:09:41;13.45;;;8.70;;
19842;SDS011;10082;51.038;6.992;2022-10-31T08:12:17;10.77;;;8.57;;
19842;SDS011;10082;51.038;6.992;2022-10-31T08:14:45;11.90;;;8.68;;
19842;SDS011;10082;51.038;6.992;2022-10-31T08:17:13;10.43;;;8.40;;
19842;SDS011;10082;51.038;6.992;2022-10-31T08:19:55;11.10;;;8.20;;
19842;SDS011;10082;51.038;6.992;2022-10-31T08:22:32;10.27;;;8.20;;
19842;SDS011;10082;51.038;6.992;2022-10-31T08:25:00;11.80;;;8.73;;
19842;SDS011;10082;51.038;6.992;2022-10-31T08:27:27;10.73;;;8.05;;
19842;SDS011;10082;51.038;6.992;2022-10-31T08:29:58;11.70;;;8.15;;
19842;SDS011;10082;51.038;6.992;2022-10-31T08:32:25;10.68;;;8.23;;
19842;SDS011;10082;51.038;6.992;2022-10-31T08:34:56;10.93;;;8.73;;
19842;SDS011;10082;51.038;6.992;2022-10-31T08:37:39;9.05;;;7.68;;
19842;SDS011;10082;51.038;6.992;2022-10-31T08:40:07;13.02;;;8.65;;
19842;SDS011;10082;51.038;6.992;2022-10-31T08:42:36;9.25;;;8.13;;
19842;SDS011;10082;51.038;6.992;2022-10-31T08:45:06;9.70;;;8.50;;
19842;SDS011;10082;51.038;6.992;2022-10-31T08:47:34;11.55;;;8.20;;
19842;SDS011;10082;51.038;6.992;2022-10-31T08:50:03;11.75;;;9.15;;
19842;SDS011;10082;51.038;6.992;2022-10-31T08:52:30;11.23;;;8.70;;
19842;SDS011;10082;51.038;6.992;2022-10-31T08:55:00;9.57;;;8.48;;
19842;SDS011;10082;51.038;6.992;2022-10-31T08:57:46;10.50;;;8.57;;
19842;SDS011;10082;51.038;6.992;2022-10-31T09:00:13;12.75;;;8.95;;
19842;SDS011;10082;51.038;6.992;2022-10-31T09:03:00;10.48;;;9.20;;
19842;SDS011;10082;51.038;6.992;2022-10-31T09:05:35;10.75;;;8.55;;
19842;SDS011;10082;51.038;6.992;2022-10-31T09:08:03;12.30;;;8.45;;
19842;SDS011;10082;51.038;6.992;2022-10-31T09:10:32;11.43;;;9.00;;
19842;SDS011;10082;51.038;6.992;2022-10-31T09:13:02;12.40;;;8.77;;
19842;SDS011;10082;51.038;6.992;2022-10-31T09:16:07;12.85;;;8.10;;
19842;SDS011;10082;51.038;6.992;2022-10-31T09:18:34;9.65;;;8.60;;
19842;SDS011;10082;51.038;6.992;2022-10-31T09:21:03;13.15;;;8.55;;
19842;SDS011;10082;51.038;6.992;2022-10-31T09:23:30;12.95;;;8.70;;
19842;SDS011;10082;51.038;6.992;2022-10-31T09:25:59;11.90;;;9.23;;
19842;SDS011;10082;51.038;6.992;2022-10-31T09:28:35;11.15;;;9.13;;
19842;SDS011;10082;51.038;6.992;2022-10-31T09:31:07;10.63;;;8.65;;
19842;SDS011;10082;51.038;6.992;2022-10-31T09:33:52;9.45;;;7.93;;
19842;SDS011;10082;51.038;6.992;2022-10-31T09:36:36;10.65;;;8.75;;
19842;SDS011;10082;51.038;6.992;2022-10-31T09:39:07;11.18;;;8.70;;
19842;SDS011;10082;51.038;6.992;2022-10-31T09:41:42;11.93;;;8.85;;
19842;SDS011;10082;51.038;6.992;2022-10-31T09:44:24;11.73;;;9.32;;
19842;SDS011;10082;51.038;6.992;2022-10-31T09:47:00;10.48;;;8.88;;
19842;SDS011;10082;51.038;6.992;2022-10-31T09:49:41;13.18;;;9.75;;
19842;SDS011;10082;51.038;6.992;2022-10-31T09:52:28;11.80;;;8.98;;
19842;SDS011;10082;51.038;6.992;2022-10-31T09:55:04;13.93;;;9.60;;
19842;SDS011;10082;51.038;6.992;2022-10-31T09:57:39;11.68;;;8.60;;
19842;SDS011;10082;51.038;6.992;2022-10-31T10:00:10;10.93;;;8.52;;
19842;SDS011;10082;51.038;6.992;2022-10-31T10:02:46;10.48;;;8.07;;
19842;SDS011;10082;51.038;6.992;2022-10-31T10:05:21;10.30;;;7.88;;
19842;SDS011;10082;51.038;6.992;2022-10-31T10:07:59;8.80;;;7.85;;
19842;SDS011;10082;51.038;6.992;2022-10-31T10:10:50;10.35;;;7.10;;
19842;SDS011;10082;51.038;6.992;2022-10-31T10:13:49;8.23;;;6.82;;
19842;SDS011;10082;51.038;6.992;2022-10-31T10:16:29;10.68;;;7.50;;
19842;SDS011;10082;51.038;6.992;2022-10-31T10:19:19;11.50;;;7.20;;
19842;SDS011;10082;51.038;6.992;2022-10-31T10:21:57;10.27;;;7.20;;
19842;SDS011;10082;51.038;6.992;2022-10-31T10:24:43;11.43;;;7.53;;
19842;SDS011;10082;51.038;6.992;2022-10-31T10:27:20;11.15;;;6.85;;
19842;SDS011;10082;51.038;6.992;2022-10-31T10:29:56;8.20;;;7.05;;
19842;SDS011;10082;51.038;6.992;2022-10-31T10:32:28;10.02;;;6.68;;
19842;SDS011;10082;51.038;6.992;2022-10-31T10:34:58;8.45;;;6.90;;
19842;SDS011;10082;51.038;6.992;2022-10-31T10:37:34;8.98;;;6.82;;
19842;SDS011;10082;51.038;6.992;2022-10-31T10:40:07;10.98;;;6.68;;
19842;SDS011;10082;51.038;6.992;2022-10-31T10:42:40;11.77;;;6.75;;
19842;SDS011;10082;51.038;6.992;2022-10-31T10:45:33;10.25;;;6.90;;
19842;SDS011;10082;51.038;6.992;2022-10-31T10:48:21;10.05;;;6.05;;
19842;SDS011;10082;51.038;6.992;2022-10-31T10:50:58;7.47;;;5.40;;
19842;SDS011;10082;51.038;6.992;2022-10-31T10:53:34;10.32;;;6.00;;
19842;SDS011;10082;51.038;6.992;2022-10-31T10:56:30;9.40;;;5.40;;
19842;SDS011;10082;51.038;6.992;2022-10-31T10:59:06;11.32;;;5.65;;
19842;SDS011;10082;51.038;6.992;2022-10-31T11:01:39;9.05;;;5.18;;
19842;SDS011;10082;51.038;6.992;2022-10-31T11:06:59;9.20;;;5.25;;
19842;SDS011;10082;51.038;6.992;2022-10-31T11:09:30;9.32;;;5.20;;
19842;SDS011;10082;51.038;6.992;2022-10-31T11:12:00;7.78;;;5.38;;
19842;SDS011;10082;51.038;6.992;2022-10-31T11:14:35;7.05;;;5.15;;
19842;SDS011;10082;51.038;6.992;2022-10-31T11:17:14;9.82;;;5.53;;
19842;SDS011;10082;51.038;6.992;2022-10-31T11:19:47;7.07;;;4.72;;
19842;SDS011;10082;51.038;6.992;2022-10-31T11:22:14;8.80;;;4.82;;
19842;SDS011;10082;51.038;6.992;2022-10-31T11:24:43;7.00;;;4.72;;
19842;SDS011;10082;51.038;6.992;2022-10-31T11:27:15;10.18;;;5.25;;
19842;SDS011;10082;51.038;6.992;2022-10-31T11:29:43;8.30;;;5.25;;
19842;SDS011;10082;51.038;6.992;2022-10-31T11:32:18;7.75;;;5.05;;
19842;SDS011;10082;51.038;6.992;2022-10-31T11:34:47;7.30;;;5.05;;
19842;SDS011;10082;51.038;6.992;2022-10-31T11:37:18;8.82;;;4.40;;
19842;SDS011;10082;51.038;6.992;2022-10-31T11:39:49;11.43;;;4.70;;
19842;SDS011;10082;51.038;6.992;2022-10-31T11:42:22;7.25;;;4.28;;
19842;SDS011;10082;51.038;6.992;2022-10-31T11:44:52;6.93;;;4.63;;
19842;SDS011;10082;51.038;6.992;2022-10-31T11:47:24;9.95;;;4.70;;
19842;SDS011;10082;51.038;6.992;2022-10-31T11:49:55;8.02;;;4.75;;
19842;SDS011;10082;51.038;6.992;2022-10-31T11:52:24;13.15;;;4.47;;
19842;SDS011;10082;51.038;6.992;2022-10-31T11:54:54;7.15;;;4.47;;
19842;SDS011;10082;51.038;6.992;2022-10-31T11:57:24;8.85;;;4.78;;
19842;SDS011;10082;51.038;6.992;2022-10-31T11:59:53;9.07;;;4.70;;
19842;SDS011;10082;51.038;6.992;2022-10-31T12:02:21;7.05;;;4.53;;
19842;SDS011;10082;51.038;6.992;2022-10-31T12:04:50;4.80;;;4.07;;
19842;SDS011;10082;51.038;6.992;2022-10-31T12:10:46;9.88;;;5.13;;
19842;SDS011;10082;51.038;6.992;2022-10-31T12:13:25;8.43;;;4.45;;
19842;SDS011;10082;51.038;6.992;2022-10-31T12:16:00;7.28;;;4.72;;
19842;SDS011;10082;51.038;6.992;2022-10-31T12:18:41;8.65;;;4.10;;
19842;SDS011;10082;51.038;6.992;2022-10-31T12:21:24;7.00;;;4.20;;
19842;SDS011;10082;51.038;6.992;2022-10-31T12:24:04;7.60;;;4.32;;
19842;SDS011;10082;51.038;6.992;2022-10-31T12:26:45;10.77;;;4.68;;
19842;SDS011;10082;51.038;6.992;2022-10-31T12:29:32;5.65;;;4.10;;
19842;SDS011;10082;51.038;6.992;2022-10-31T12:32:16;7.70;;;4.35;;
19842;SDS011;10082;51.038;6.992;2022-10-31T12:37:52;7.22;;;4.07;;
19842;SDS011;10082;51.038;6.992;2022-10-31T12:40:37;7.30;;;4.97;;
19842;SDS011;10082;51.038;6.992;2022-10-31T12:43:19;5.97;;;4.18;;
19842;SDS011;10082;51.038;6.992;2022-10-31T12:46:03;6.03;;;4.15;;
19842;SDS011;10082;51.038;6.992;2022-10-31T12:51:39;8.10;;;4.10;;
19842;SDS011;10082;51.038;6.992;2022-10-31T12:54:25;7.70;;;4.00;;
19842;SDS011;10082;51.038;6.992;2022-10-31T12:57:06;8.65;;;4.47;;
19842;SDS011;10082;51.038;6.992;2022-10-31T12:59:40;6.85;;;4.00;;
19842;SDS011;10082;51.038;6.992;2022-10-31T13:02:13;9.82;;;4.60;;
19842;SDS011;10082;51.038;6.992;2022-10-31T13:04:47;6.93;;;3.67;;
19842;SDS011;10082;51.038;6.992;2022-10-31T13:07:18;10.52;;;4.57;;
19842;SDS011;10082;51.038;6.992;2022-10-31T13:09:53;7.50;;;4.18;;
19842;SDS011;10082;51.038;6.992;2022-10-31T13:12:25;7.10;;;4.70;;
19842;SDS011;10082;51.038;6.992;2022-10-31T13:14:56;8.07;;;4.35;;
19842;SDS011;10082;51.038;6.992;2022-10-31T13:17:31;6.90;;;4.20;;
19842;SDS011;10082;51.038;6.992;2022-10-31T13:20:13;7.53;;;3.95;;
19842;SDS011;10082;51.038;6.992;2022-10-31T13:22:48;11.27;;;5.38;;
19842;SDS011;10082;51.038;6.992;2022-10-31T13:25:19;8.38;;;3.85;;
19842;SDS011;10082;51.038;6.992;2022-10-31T13:27:51;8.07;;;3.50;;
19842;SDS011;10082;51.038;6.992;2022-10-31T13:30:23;6.93;;;4.00;;
19842;SDS011;10082;51.038;6.992;2022-10-31T13:32:55;8.32;;;4.28;;
19842;SDS011;10082;51.038;6.992;2022-10-31T13:35:43;8.82;;;4.30;;
19842;SDS011;10082;51.038;6.992;2022-10-31T13:38:18;8.30;;;3.85;;
19842;SDS011;10082;51.038;6.992;2022-10-31T13:40:51;7.47;;;4.45;;
19842;SDS011;10082;51.038;6.992;2022-10-31T13:43:26;6.20;;;4.60;;
19842;SDS011;10082;51.038;6.992;2022-10-31T13:45:57;5.57;;;3.90;;
19842;SDS011;10082;51.038;6.992;2022-10-31T13:48:35;6.97;;;3.90;;
19842;SDS011;10082;51.038;6.992;2022-10-31T13:51:07;8.73;;;3.40;;
19842;SDS011;10082;51.038;6.992;2022-10-31T13:53:42;6.30;;;3.83;;
19842;SDS011;10082;51.038;6.992;2022-10-31T13:56:13;6.03;;;3.70;;
19842;SDS011;10082;51.038;6.992;2022-10-31T13:58:54;6.47;;;4.43;;
19842;SDS011;10082;51.038;6.992;2022-10-31T14:01:28;5.72;;;3.85;;
19842;SDS011;10082;51.038;6.992;2022-10-31T14:03:59;4.78;;;3.53;;
19842;SDS011;10082;51.038;6.992;2022-10-31T14:06:37;8.55;;;3.75;;
19842;SDS011;10082;51.038;6.992;2022-10-31T14:09:22;6.72;;;4.05;;
19842;SDS011;10082;51.038;6.992;2022-10-31T14:11:55;6.57;;;3.75;;
19842;SDS011;10082;51.038;6.992;2022-10-31T14:14:26;9.85;;;4.63;;
19842;SDS011;10082;51.038;6.992;2022-10-31T14:16:59;6.68;;;3.63;;
19842;SDS011;10082;51.038;6.992;2022-10-31T14:19:28;6.15;;;4.00;;
19842;SDS011;10082;51.038;6.992;2022-10-31T14:21:55;6.38;;;4.05;;
19842;SDS011;10082;51.038;6.992;2022-10-31T14:24:33;6.93;;;4.07;;
19842;SDS011;10082;51.038;6.992;2022-10-31T14:27:03;6.20;;;4.00;;
19842;SDS011;10082;51.038;6.992;2022-10-31T14:29:51;7.60;;;3.50;;
19842;SDS011;10082;51.038;6.992;2022-10-31T14:32:19;5.05;;;3.60;;
19842;SDS011;10082;51.038;6.992;2022-10-31T14:34:53;6.22;;;3.80;;
19842;SDS011;10082;51.038;6.992;2022-10-31T14:37:29;5.93;;;3.50;;
19842;SDS011;10082;51.038;6.992;2022-10-31T14:40:10;7.63;;;4.07;;
19842;SDS011;10082;51.038;6.992;2022-10-31T14:45:59;6.75;;;3.53;;
19842;SDS011;10082;51.038;6.992;2022-10-31T14:48:33;9.32;;;4.78;;
19842;SDS011;10082;51.038;6.992;2022-10-31T14:51:13;9.40;;;5.40;;
19842;SDS011;10082;51.038;6.992;2022-10-31T14:53:46;10.63;;;6.35;;
19842;SDS011;10082;51.038;6.992;2022-10-31T14:56:17;8.32;;;6.60;;
19842;SDS011;10082;51.038;6.992;2022-10-31T14:58:48;12.25;;;7.43;;
19842;SDS011;10082;51.038;6.992;2022-10-31T15:01:18;15.38;;;7.22;;
19842;SDS011;10082;51.038;6.992;2022-10-31T15:03:51;8.98;;;6.07;;
19842;SDS011;10082;51.038;6.992;2022-10-31T15:06:21;8.95;;;5.43;;
19842;SDS011;10082;51.038;6.992;2022-10-31T15:08:50;7.95;;;3.97;;
19842;SDS011;10082;51.038;6.992;2022-10-31T15:11:20;10.10;;;4.32;;
19842;SDS011;10082;51.038;6.992;2022-10-31T15:13:49;8.63;;;4.13;;
19842;SDS011;10082;51.038;6.992;2022-10-31T15:16:18;6.80;;;3.78;;
19842;SDS011;10082;51.038;6.992;2022-10-31T15:18:54;5.57;;;3.20;;
19842;SDS011;10082;51.038;6.992;2022-10-31T15:21:25;6.35;;;3.83;;
19842;SDS011;10082;51.038;6.992;2022-10-31T15:23:54;5.93;;;3.70;;
19842;SDS011;10082;51.038;6.992;2022-10-31T15:26:24;7.20;;;4.05;;
19842;SDS011;10082;51.038;6.992;2022-10-31T15:28:59;8.55;;;3.58;;
19842;SDS011;10082;51.038;6.992;2022-10-31T15:31:28;6.80;;;3.58;;
19842;SDS011;10082;51.038;6.992;2022-10-31T15:33:57;7.57;;;3.30;;
19842;SDS011;10082;51.038;6.992;2022-10-31T15:36:30;11.60;;;3.40;;